Time;durP1;ratioP1;P1;durP2;ratioP2;P2;SDS_P1;SDS_P2;PMS_P1;PMS_P2;Temp;Humidity;BMP_temperature;BMP_pressure;BME280_temperature;BME280_humidity;BME280_pressure;Samples;Min_cycle;Max_cycle;Signal;HPM_P1;HPM_P2
2023/04/25 00:02:59;;;;;;;2.70;1.80;;;;;;;8.77;77.18;99214.08;134404;1299;23254;-74
2023/04/25 00:06:01;;;;;;;4.30;1.90;;;;;;;8.74;77.20;99215.16;134405;1296;23139;-74
2023/04/25 00:09:10;;;;;;;2.60;1.90;;;;;;;8.72;77.31;99216.10;134383;1299;22507;-74
2023/04/25 00:12:12;;;;;;;3.00;2.10;;;;;;;8.69;77.11;99212.55;134247;1299;22455;-74
2023/04/25 00:15:13;;;;;;;3.80;1.90;;;;;;;8.66;77.29;99215.21;134192;1300;23196;-75
2023/04/25 00:18:14;;;;;;;;;;;;;;;8.63;76.88;99216.14;134245;1296;22454;-73
2023/04/25 00:21:19;;;;;;;7.60;1.70;;;;;;;8.60;77.08;99213.58;134389;1296;22224;-77
2023/04/25 00:24:20;;;;;;;3.30;1.90;;;;;;;8.57;77.00;99214.45;134432;1295;22364;-75
2023/04/25 00:27:21;;;;;;;3.10;1.90;;;;;;;8.57;76.97;99212.70;134217;1296;22106;-73
2023/04/25 00:30:22;;;;;;;2.30;1.60;;;;;;;8.55;76.82;99217.87;134198;1295;22403;-73
2023/04/25 00:33:23;;;;;;;3.70;2.10;;;;;;;8.55;76.91;99222.34;134166;1295;22187;-75
2023/04/25 00:36:23;;;;;;;;;;;;;;;8.52;76.86;99223.64;134421;1296;22475;-73
2023/04/25 00:39:24;;;;;;;3.00;1.50;;;;;;;8.49;76.95;99224.72;134229;1301;24513;-74
2023/04/25 00:42:28;;;;;;;3.30;1.50;;;;;;;8.47;76.82;99226.67;134384;1299;22423;-73
2023/04/25 00:45:32;;;;;;;4.30;1.90;;;;;;;8.46;76.79;99228.36;134375;1304;22482;-74
2023/04/25 00:48:43;;;;;;;1.70;1.60;;;;;;;8.46;76.95;99228.58;134108;1300;22488;-76
2023/04/25 00:51:44;;;;;;;2.40;1.60;;;;;;;8.45;76.95;99229.60;134436;1296;22332;-73
2023/04/25 00:54:45;;;;;;;7.70;1.80;;;;;;;8.43;76.90;99231.52;134404;1296;22360;-73
2023/04/25 00:57:47;;;;;;;2.60;2.00;;;;;;;8.40;76.97;99231.55;134392;1296;23129;-73
2023/04/25 01:00:51;;;;;;;3.10;1.30;;;;;;;8.39;76.78;99231.48;134139;1301;23384;-74
2023/04/25 01:03:58;;;;;;;2.20;1.80;;;;;;;8.39;76.86;99232.57;134418;1298;22463;-74
2023/04/25 01:06:59;;;;;;;1.50;1.40;;;;;;;8.37;76.89;99228.04;134217;1301;22144;-73
2023/04/25 01:10:00;;;;;;;3.00;1.20;;;;;;;8.35;76.77;99229.95;134405;1295;23132;-75
2023/04/25 01:13:02;;;;;;;3.70;1.20;;;;;;;8.32;76.73;99231.56;134408;1298;22418;-73
2023/04/25 01:16:07;;;;;;;1.60;1.30;;;;;;;8.30;76.74;99227.20;134399;1296;23253;-74
2023/04/25 01:19:13;;;;;;;3.90;1.70;;;;;;;8.29;76.93;99230.66;134370;1295;22532;-74
2023/04/25 01:22:14;;;;;;;1.90;1.30;;;;;;;8.28;76.85;99232.33;134082;1298;22453;-74
2023/04/25 01:25:40;;;;;;;3.20;1.20;;;;;;;8.27;76.69;99236.11;134206;1301;22343;-73
2023/04/25 01:28:52;;;;;;;2.70;1.10;;;;;;;8.26;76.95;99239.91;134075;1304;22139;-73
2023/04/25 01:31:59;;;;;;;1.70;1.20;;;;;;;8.26;76.99;99243.80;134121;1304;22366;-74
2023/04/25 01:35:00;;;;;;;1.90;1.50;;;;;;;8.24;76.90;99243.95;134268;1298;22187;-73
2023/04/25 01:38:11;;;;;;;3.50;1.30;;;;;;;8.21;77.10;99244.26;134067;1304;22151;-73
2023/04/25 01:41:38;;;;;;;1.80;1.60;;;;;;;8.17;77.24;99244.33;134029;1298;22361;-74
2023/04/25 01:44:45;;;;;;;2.50;1.70;;;;;;;8.15;77.41;99244.23;133991;1298;22443;-73
2023/04/25 01:47:48;;;;;;;2.00;1.50;;;;;;;8.12;77.21;99249.29;134213;1298;22877;-74
2023/04/25 01:50:52;;;;;;;1.50;1.40;;;;;;;8.09;77.21;99250.70;134089;1299;22359;-74
2023/04/25 01:53:57;;;;;;;5.00;1.30;;;;;;;8.05;77.57;99250.91;134230;1299;22343;-74
2023/04/25 01:56:58;;;;;;;2.30;1.70;;;;;;;7.99;77.53;99253.81;134045;1301;22341;-74
2023/04/25 02:00:04;;;;;;;5.20;2.10;;;;;;;7.94;77.46;99256.77;134233;1299;23191;-73
2023/04/25 02:03:13;;;;;;;1.50;1.40;;;;;;;7.91;77.47;99252.14;134131;1288;22438;-74
2023/04/25 02:06:14;;;;;;;1.70;1.60;;;;;;;7.89;77.46;99250.84;134259;1300;22354;-73
2023/04/25 02:09:18;;;;;;;5.00;2.20;;;;;;;7.85;77.75;99249.64;134113;1298;22401;-74
2023/04/25 02:12:35;;;;;;;;;;;;;;;;;;;;;
2023/04/25 02:15:56;;;;;;;3.40;1.70;;;;;;;7.75;77.91;99255.58;134095;1298;23229;-73
2023/04/25 02:19:04;;;;;;;;;;;;;;;7.69;77.95;99252.29;134082;1297;23311;-73
2023/04/25 02:22:24;;;;;;;4.80;1.90;;;;;;;7.64;77.94;99246.33;134412;1296;22450;-73
2023/04/25 02:25:28;;;;;;;3.80;1.70;;;;;;;7.61;78.06;99248.98;134190;1298;23209;-74
2023/04/25 02:28:32;;;;;;;2.60;1.80;;;;;;;7.57;77.87;99253.41;133879;1299;419125;-74
2023/04/25 02:31:36;;;;;;;5.60;2.10;;;;;;;7.51;78.14;99252.16;134413;1298;22437;-73
2023/04/25 02:34:39;;;;;;;2.70;2.00;;;;;;;7.49;78.17;99254.36;134239;1297;22193;-73
2023/04/25 02:37:40;;;;;;;2.40;2.10;;;;;;;7.47;78.10;99254.79;134409;1299;22362;-75
2023/04/25 02:40:41;;;;;;;5.10;2.30;;;;;;;7.45;78.32;99251.65;134249;1299;22353;-73
2023/04/25 02:43:42;;;;;;;;;;;;;;;7.43;78.21;99253.11;134394;1301;22440;-74
2023/04/25 02:46:46;;;;;;;3.20;2.30;;;;;;;7.38;78.15;99251.50;134421;1298;22470;-73
2023/04/25 02:49:47;;;;;;;2.40;2.00;;;;;;;7.34;78.34;99254.23;134399;1304;23113;-73
2023/04/25 02:52:48;;;;;;;2.60;2.30;;;;;;;7.30;78.08;99255.33;134190;1304;22376;-73
2023/04/25 02:56:03;;;;;;;;;;;;;;;;;;;;;
2023/04/25 02:59:17;;;;;;;;;;;;;;;;;;;;;
2023/04/25 03:02:18;;;;;;;4.40;3.10;;;;;;;7.28;78.30;99254.05;134197;1299;22449;-74
2023/04/25 03:05:19;;;;;;;3.20;2.40;;;;;;;7.26;78.15;99254.21;134130;1296;22430;-73
2023/04/25 03:08:25;;;;;;;2.90;2.40;;;;;;;7.23;78.21;99251.77;134226;1299;22380;-74
2023/04/25 03:11:26;;;;;;;3.70;3.20;;;;;;;7.24;78.37;99254.31;134386;1299;22462;-73
2023/04/25 03:14:27;;;;;;;4.40;3.00;;;;;;;7.22;78.34;99248.15;134388;1297;22329;-73
2023/04/25 03:17:37;;;;;;;3.80;3.30;;;;;;;7.21;78.37;99248.42;134285;1299;22401;-72
2023/04/25 03:20:41;;;;;;;4.30;3.90;;;;;;;7.17;78.43;99248.79;134139;1298;22412;-73
2023/04/25 03:23:46;;;;;;;4.40;3.90;;;;;;;7.14;78.32;99250.23;134294;1299;22384;-73
2023/04/25 03:26:57;;;;;;;4.60;3.90;;;;;;;7.13;78.43;99248.77;134209;1302;22152;-73
2023/04/25 03:29:59;;;;;;;6.50;4.00;;;;;;;7.12;78.40;99254.30;134151;1302;22497;-73
2023/04/25 03:33:17;;;;;;;;;;;;;;;;;;;;;
2023/04/25 03:36:30;;;;;;;4.50;3.50;;;;;;;7.05;78.38;99253.27;134219;1304;22435;-74
2023/04/25 03:39:31;;;;;;;6.50;3.80;;;;;;;7.04;78.54;99261.17;134384;1297;22226;-73
2023/04/25 03:42:33;;;;;;;9.10;4.60;;;;;;;7.02;78.60;99258.09;134124;1298;22453;-73
2023/04/25 03:45:54;;;;;;;7.80;4.70;;;;;;;6.99;78.54;99260.77;134233;1299;22438;-72
2023/04/25 03:48:59;;;;;;;13.20;7.00;;;;;;;6.97;78.59;99260.85;134231;1299;22220;-76
2023/04/25 03:52:28;;;;;;;9.60;5.30;;;;;;;6.95;78.58;99258.11;134250;1293;22424;-73
2023/04/25 03:55:45;;;;;;;10.30;5.90;;;;;;;6.95;78.72;99257.35;134246;1297;22429;-73
2023/04/25 03:59:06;;;;;;;8.50;5.40;;;;;;;6.96;78.70;99256.95;134174;1302;22506;-73
2023/04/25 04:02:27;;;;;;;8.90;5.10;;;;;;;6.93;78.63;99260.05;134237;1299;22429;-72
2023/04/25 04:05:33;;;;;;;6.60;4.50;;;;;;;6.93;78.80;99263.06;134129;1304;22366;-73
2023/04/25 04:08:44;;;;;;;7.00;4.90;;;;;;;6.93;78.70;99270.44;134214;1301;22433;-73
2023/04/25 04:11:59;;;;;;;6.90;4.50;;;;;;;6.93;78.82;99275.66;134177;1298;23100;-74
2023/04/25 04:15:03;;;;;;;12.70;6.00;;;;;;;6.94;78.71;99277.98;134412;1299;22526;-73
2023/04/25 04:18:04;;;;;;;7.80;5.20;;;;;;;6.95;78.64;99276.89;134063;1302;22510;-73
2023/04/25 04:21:08;;;;;;;8.10;5.30;;;;;;;6.95;78.80;99280.05;134277;1299;22916;-73
2023/04/25 04:24:13;;;;;;;6.70;4.50;;;;;;;6.97;78.89;99280.70;134292;1299;22467;-73
2023/04/25 04:27:24;;;;;;;9.80;5.70;;;;;;;7.01;78.84;99280.27;134227;1297;22227;-72
2023/04/25 04:30:39;;;;;;;6.90;5.00;;;;;;;7.06;78.77;99278.04;134115;1302;22422;-72
2023/04/25 04:33:45;;;;;;;6.90;5.00;;;;;;;7.13;78.76;99280.77;134123;1302;22408;-73
2023/04/25 04:36:46;;;;;;;11.90;5.10;;;;;;;7.20;78.82;99278.42;134106;1301;22365;-71
2023/04/25 04:39:47;;;;;;;6.30;5.20;;;;;;;7.28;78.88;99279.19;134264;1304;22356;-76
2023/04/25 04:43:02;;;;;;;8.30;4.80;;;;;;;7.38;78.86;99280.85;134307;1303;22469;-74
2023/04/25 04:46:03;;;;;;;;;;;;;;;7.47;78.84;99285.24;134397;1298;22454;-73
2023/04/25 04:49:17;;;;;;;11.70;5.70;;;;;;;7.56;78.74;99290.73;134171;1304;22475;-74
2023/04/25 04:52:30;;;;;;;6.50;5.40;;;;;;;7.65;78.65;99288.87;134313;1290;22353;-74
2023/04/25 04:56:03;;;;;;;11.20;5.40;;;;;;;7.72;78.56;99288.59;133946;1299;22330;-73
2023/04/25 04:59:22;;;;;;;8.60;6.50;;;;;;;7.83;78.36;99286.69;134212;1298;23016;-73
2023/04/25 05:02:52;;;;;;;11.60;6.40;;;;;;;7.98;78.22;99287.19;133884;1298;22974;-76
2023/04/25 05:06:53;;;;;;;;;;;;;;;;;;;;;
2023/04/25 05:10:03;;;;;;;;;;;;;;;8.27;77.95;99282.83;134361;1296;22476;-76
2023/04/25 05:13:49;;;;;;;10.60;5.80;;;;;;;8.37;77.65;99284.45;134118;1296;23249;-79
2023/04/25 05:17:23;;;;;;;8.40;6.40;;;;;;;8.50;77.67;99284.04;134224;1303;22444;-79
2023/04/25 05:20:45;;;;;;;8.80;5.90;;;;;;;8.61;77.09;99281.03;134364;1301;22451;-76
2023/04/25 05:23:56;;;;;;;9.90;6.40;;;;;;;8.63;76.94;99277.22;134193;1299;22464;-78
2023/04/25 05:27:20;;;;;;;9.40;5.40;;;;;;;8.76;76.93;99280.14;134382;1298;22484;-78
2023/04/25 05:30:47;;;;;;;11.70;6.80;;;;;;;8.88;76.57;99280.36;134190;1300;22462;-80
2023/04/25 05:34:17;;;;;;;8.90;5.40;;;;;;;8.97;76.29;99279.14;134249;1302;22428;-78
2023/04/25 05:37:30;;;;;;;8.10;6.00;;;;;;;9.00;75.85;99282.56;134183;1297;22852;-79
2023/04/25 05:41:01;;;;;;;7.80;6.30;;;;;;;9.03;75.70;99288.56;134391;1296;22407;-79
2023/04/25 05:44:26;;;;;;;9.10;6.60;;;;;;;9.07;75.65;99289.35;134255;1304;22194;-78
2023/04/25 05:48:17;;;;;;;8.80;6.20;;;;;;;9.18;75.50;99286.09;134372;1296;22454;-79
2023/04/25 05:55:46;;;;;;;8.50;6.00;;;;;;;9.37;74.38;99289.90;134217;1296;22395;-79
2023/04/25 05:59:34;;;;;;;9.60;6.40;;;;;;;9.43;74.50;99291.34;134184;1304;22947;-78
2023/04/25 06:02:35;;;;;;;11.90;6.20;;;;;;;9.56;74.40;99288.20;134134;1302;23077;-78
2023/04/25 06:05:37;;;;;;;7.40;5.60;;;;;;;9.65;74.38;99290.52;134232;1302;22391;-79
2023/04/25 06:08:38;;;;;;;8.90;6.10;;;;;;;9.76;73.98;99290.09;134179;1302;22348;-80
2023/04/25 06:11:39;;;;;;;6.60;5.40;;;;;;;9.80;73.21;99296.08;134419;1296;22460;-79
2023/04/25 06:14:40;;;;;;;;;;;;;;;9.76;72.95;99296.91;134236;1296;23153;-80
2023/04/25 06:17:41;;;;;;;8.80;4.80;;;;;;;9.72;72.95;99297.98;134311;1299;22349;-79
2023/04/25 06:21:14;;;;;;;7.40;5.60;;;;;;;9.67;72.42;99299.98;134233;1299;22442;-80
2023/04/25 06:24:41;;;;;;;8.70;5.40;;;;;;;9.73;72.80;99300.68;134398;1298;23095;-79
2023/04/25 06:27:42;;;;;;;6.50;5.00;;;;;;;9.77;72.11;99292.42;134226;1296;22435;-79
2023/04/25 06:30:43;;;;;;;7.60;4.90;;;;;;;9.76;72.11;99293.24;134288;1298;22351;-81
2023/04/25 06:33:48;;;;;;;8.30;4.90;;;;;;;9.80;72.11;99289.95;134290;1299;22440;-79
2023/04/25 06:36:51;;;;;;;6.30;4.90;;;;;;;9.85;71.50;99288.11;134365;1298;22424;-79
2023/04/25 06:39:52;;;;;;;7.90;5.30;;;;;;;9.88;71.58;99286.88;134272;1304;22412;-79
2023/04/25 06:42:53;;;;;;;8.70;5.70;;;;;;;9.98;71.36;99278.66;134215;1299;22310;-80
2023/04/25 06:46:31;;;;;;;;;;;;;;;;;;;;;
2023/04/25 06:49:45;;;;;;;6.60;4.80;;;;;;;10.21;70.93;99278.46;134220;1298;22354;-79
2023/04/25 06:52:48;;;;;;;11.90;5.30;;;;;;;10.39;70.94;99279.82;134272;1299;22139;-79
2023/04/25 06:55:53;;;;;;;7.70;4.80;;;;;;;10.58;70.62;99277.43;134261;1297;22410;-79
2023/04/25 06:59:09;;;;;;;7.20;4.60;;;;;;;10.67;69.42;99278.63;134224;1296;22485;-79
2023/04/25 07:02:31;;;;;;;;;;;;;;;;;;;;;
2023/04/25 07:06:01;;;;;;;7.00;4.70;;;;;;;10.84;69.48;99275.70;134081;1304;22387;-80
2023/04/25 07:09:23;;;;;;;6.90;5.20;;;;;;;10.93;69.35;99277.75;134194;1299;23353;-79
2023/04/25 07:12:41;;;;;;;11.20;5.80;;;;;;;11.00;69.44;99272.64;134205;1301;22446;-78
2023/04/25 07:16:40;;;;;;;6.40;5.00;;;;;;;11.03;69.06;99273.36;134235;1296;23061;-78
2023/04/25 07:19:48;;;;;;;;;;;;;;;;;;;;;
2023/04/25 07:23:23;;;;;;;;;;;;;;;;;;;;;
2023/04/25 07:27:33;;;;;;;10.50;4.90;;;;;;;11.13;67.71;99272.95;134112;1297;22195;-78
2023/04/25 07:30:41;;;;;;;;;;;;;;;;;;;;;
2023/04/25 07:34:36;;;;;;;;;;;;;;;;;;;;;
2023/04/25 07:38:13;;;;;;;7.40;4.40;;;;;;;11.43;67.73;99280.77;133989;1298;23360;-79
2023/04/25 07:41:20;;;;;;;8.30;4.70;;;;;;;11.67;67.46;99278.58;134051;1299;24993;-78
2023/04/25 07:44:30;;;;;;;7.60;4.60;;;;;;;11.86;66.67;99277.91;134067;1298;23062;-78
2023/04/25 07:47:35;;;;;;;7.00;4.40;;;;;;;11.96;66.48;99278.81;134233;1299;23210;-80
2023/04/25 07:51:22;;;;;;;7.30;4.40;;;;;;;12.18;65.97;99284.99;134111;1298;22343;-78
2023/04/25 07:54:33;;;;;;;9.00;4.30;;;;;;;12.27;65.70;99275.86;134073;1301;22388;-78
2023/04/25 07:57:42;;;;;;;8.10;4.40;;;;;;;12.44;65.23;99270.40;134124;1292;22398;-78
2023/04/25 08:01:04;;;;;;;5.50;4.00;;;;;;;12.52;64.77;99269.34;134061;1301;22392;-81
2023/04/25 08:04:22;;;;;;;6.40;3.50;;;;;;;12.57;63.83;99272.26;134115;1299;22388;-78
2023/04/25 08:07:30;;;;;;;9.40;4.30;;;;;;;12.55;63.51;99273.06;134014;1299;22868;-78
2023/04/25 08:10:42;;;;;;;8.10;4.10;;;;;;;12.62;63.23;99274.42;134040;1299;22438;-76
2023/04/25 08:14:02;;;;;;;8.10;3.70;;;;;;;12.74;62.74;99272.98;133901;1302;22349;-77
2023/04/25 08:21:16;;;;;;;6.70;3.50;;;;;;;12.94;61.84;99270.90;134075;1298;23154;-77
2023/04/25 08:24:21;;;;;;;7.00;3.60;;;;;;;12.97;61.43;99273.16;134192;1298;22358;-77
2023/04/25 08:27:22;;;;;;;7.50;3.70;;;;;;;13.12;61.26;99276.30;134232;1298;22379;-77
2023/04/25 08:30:26;;;;;;;8.00;3.80;;;;;;;13.22;60.46;99283.63;134274;1298;22359;-77
2023/04/25 08:33:33;;;;;;;7.80;3.90;;;;;;;13.27;60.63;99283.29;134140;1299;22343;-78
2023/04/25 08:36:52;;;;;;;8.80;4.00;;;;;;;13.34;60.35;99284.81;133925;1298;22434;-77
2023/04/25 08:40:11;;;;;;;7.70;3.50;;;;;;;13.49;60.02;99282.60;134051;1301;22415;-77
2023/04/25 08:43:44;;;;;;;6.60;3.60;;;;;;;13.55;58.93;99283.95;134046;1299;22885;-76
2023/04/25 08:46:49;;;;;;;7.00;4.00;;;;;;;13.69;59.28;99287.83;133980;1301;22462;-77
2023/04/25 08:49:59;;;;;;;5.50;3.70;;;;;;;13.97;58.48;99289.42;134192;1297;22581;-76
2023/04/25 08:53:04;;;;;;;7.50;4.00;;;;;;;14.12;56.93;99289.39;134143;1298;23064;-77
2023/04/25 08:56:13;;;;;;;7.90;4.10;;;;;;;14.21;56.89;99290.00;134249;1297;23330;-76
2023/04/25 08:59:42;;;;;;;;;;;;;;;;;;;;;
2023/04/25 09:02:47;;;;;;;5.70;3.40;;;;;;;13.91;55.25;99280.11;134214;1304;22659;-78
2023/04/25 09:05:50;;;;;;;7.00;4.00;;;;;;;13.61;55.36;99286.16;134161;1301;23063;-78
2023/04/25 09:08:51;;;;;;;5.80;3.70;;;;;;;13.65;55.96;99291.85;134246;1297;23043;-79
2023/04/25 09:12:05;;;;;;;;;;;;;;;;;;;;;
2023/04/25 09:15:20;;;;;;;6.10;3.90;;;;;;;13.76;55.34;99291.39;134092;1297;22399;-78
2023/04/25 09:18:44;;;;;;;7.90;3.80;;;;;;;13.66;55.38;99296.98;134266;1298;23581;-77
2023/04/25 09:21:50;;;;;;;5.90;3.60;;;;;;;13.58;55.45;99303.05;134128;1298;22491;-78
2023/04/25 09:25:44;;;;;;;;;;;;;;;;;;;;;
2023/04/25 09:29:19;;;;;;;8.50;4.50;;;;;;;13.71;55.90;99300.98;134151;1304;23350;-77
2023/04/25 09:32:22;;;;;;;7.40;4.50;;;;;;;13.68;55.83;99302.92;134134;1298;22376;-77
2023/04/25 09:35:37;;;;;;;;;;;;;;;;;;;;;
2023/04/25 09:38:44;;;;;;;9.10;4.10;;;;;;;13.73;55.57;99298.04;134110;1298;22454;-78
2023/04/25 09:42:05;;;;;;;8.50;4.00;;;;;;;13.59;55.32;99301.17;134143;1297;22398;-78
2023/04/25 09:45:14;;;;;;;6.50;4.40;;;;;;;13.27;54.89;99300.45;134087;1301;22420;-78
2023/04/25 09:48:21;;;;;;;8.30;5.50;;;;;;;13.14;55.69;99301.28;134249;1298;22271;-77
2023/04/25 09:51:26;;;;;;;8.40;4.90;;;;;;;13.24;56.07;99299.63;134242;1299;22445;-78
2023/04/25 09:54:27;;;;;;;8.50;4.70;;;;;;;13.30;55.87;99298.46;134101;1301;22411;-80
2023/04/25 09:57:39;;;;;;;6.40;4.90;;;;;;;13.18;55.44;99300.23;134299;1299;22475;-79
2023/04/25 10:01:15;;;;;;;4.90;4.10;;;;;;;13.03;55.81;99306.15;134236;1298;22404;-79
2023/04/25 10:04:28;;;;;;;10.60;4.90;;;;;;;12.80;55.49;99304.79;134123;1304;22379;-80
2023/04/25 10:07:46;;;;;;;6.90;4.50;;;;;;;12.71;56.16;99300.16;134284;1298;22367;-80
2023/04/25 10:11:14;;;;;;;6.80;4.60;;;;;;;12.86;56.54;99304.77;134309;1299;22412;-80
2023/04/25 10:14:33;;;;;;;;;;;;;;;;;;;;;
2023/04/25 10:18:18;;;;;;;8.60;4.20;;;;;;;13.07;56.06;99304.68;134320;1298;22473;-80
2023/04/25 10:21:35;;;;;;;5.90;4.10;;;;;;;13.12;55.89;99298.88;134339;1304;22427;-80
2023/04/25 10:25:16;;;;;;;5.60;4.10;;;;;;;13.21;55.75;99297.73;134332;1297;22379;-80
2023/04/25 10:28:20;;;;;;;4.40;3.70;;;;;;;13.37;55.85;99296.13;134261;1297;22464;-79
2023/04/25 10:31:46;;;;;;;6.90;4.30;;;;;;;13.42;55.47;99292.35;134125;1297;23474;-80
2023/04/25 10:35:11;;;;;;;6.00;4.20;;;;;;;13.36;54.48;99294.45;134206;1298;23113;-78
2023/04/25 10:38:33;;;;;;;5.50;3.60;;;;;;;13.05;54.28;99297.17;134257;1298;22441;-77
2023/04/25 10:42:02;;;;;;;8.80;4.20;;;;;;;12.64;54.50;99296.09;134275;1297;22343;-77
2023/04/25 10:45:06;;;;;;;4.90;3.20;;;;;;;12.49;55.12;99299.61;134321;1296;22219;-77
2023/04/25 10:48:54;;;;;;;7.80;3.70;;;;;;;12.47;55.35;99299.93;134218;1299;22392;-77
2023/04/25 10:52:24;;;;;;;7.10;4.20;;;;;;;12.38;55.30;99300.91;133264;1304;22484;-77
2023/04/25 10:55:51;;;;;;;8.20;3.80;;;;;;;12.53;55.90;99299.02;133423;1298;22392;-77
2023/04/25 10:59:04;;;;;;;6.10;3.60;;;;;;;12.74;55.36;99299.94;134308;1298;22395;-78
2023/04/25 11:02:29;;;;;;;4.20;2.60;;;;;;;12.83;54.68;99295.38;134049;1301;22437;-78
2023/04/25 11:06:02;;;;;;;4.00;2.80;;;;;;;12.82;53.72;99292.30;134240;1297;22399;-77
2023/04/25 11:09:12;;;;;;;3.70;2.50;;;;;;;12.84;53.98;99294.06;134252;1298;22334;-78
2023/04/25 11:12:16;;;;;;;4.20;2.40;;;;;;;13.11;54.15;99282.64;134210;1298;22340;-78
2023/04/25 11:15:39;;;;;;;3.20;2.30;;;;;;;13.39;54.18;99283.25;134270;1298;23228;-78
2023/04/25 11:18:44;;;;;;;4.30;2.50;;;;;;;13.81;53.97;99282.52;134269;1298;22444;-78
2023/04/25 11:22:09;;;;;;;6.50;2.40;;;;;;;14.05;51.99;99277.66;134135;1297;23019;-78
2023/04/25 11:25:27;;;;;;;;;;;;;;;;;;;;;
2023/04/25 11:28:37;;;;;;;5.60;2.60;;;;;;;13.67;50.53;99285.55;134195;1298;22392;-78
2023/04/25 11:31:38;;;;;;;3.70;2.00;;;;;;;13.57;50.66;99289.85;134270;1298;22454;-78
2023/04/25 11:34:47;;;;;;;3.10;1.80;;;;;;;13.54;51.01;99289.08;134260;1298;22341;-78
2023/04/25 11:37:53;;;;;;;;;;;;;;;13.44;50.90;99286.45;134145;1298;23632;-78
2023/04/25 11:42:01;;;;;;;8.10;2.30;;;;;;;13.33;50.61;99287.15;134329;1298;22417;-77
2023/04/25 11:44:46;;;;;;;3.80;1.90;;;;;;;13.14;50.83;99293.09;134220;1298;22298;-78
2023/04/25 11:48:03;;;;;;;3.30;2.20;;;;;;;12.99;51.06;99297.50;134276;1297;22426;-78
2023/04/25 11:51:08;;;;;;;6.20;2.30;;;;;;;12.91;51.15;99299.86;134276;1302;22358;-78
2023/04/25 11:54:10;;;;;;;4.20;2.30;;;;;;;12.87;50.46;99307.10;134270;1297;22218;-78
2023/04/25 11:57:14;;;;;;;5.90;2.70;;;;;;;12.80;50.58;99304.66;134191;1299;22911;-78
2023/04/25 12:00:20;;;;;;;6.20;2.40;;;;;;;12.66;51.10;99301.34;134257;1298;22318;-78
2023/04/25 12:03:32;;;;;;;;;;;;;;;;;;;;;
2023/04/25 12:06:39;;;;;;;4.00;2.70;;;;;;;12.60;51.24;99292.11;134295;1302;22351;-78
2023/04/25 12:09:41;;;;;;;3.50;2.60;;;;;;;12.64;51.27;99295.05;134161;1298;22223;-79
2023/04/25 12:12:43;;;;;;;5.20;2.20;;;;;;;12.68;51.10;99293.98;134045;1298;22368;-78
2023/04/25 12:15:47;;;;;;;4.80;3.40;;;;;;;12.73;51.16;99293.39;134102;1297;22160;-78
2023/04/25 12:18:52;;;;;;;4.70;2.60;;;;;;;12.85;51.42;99294.43;134218;1298;23520;-78
2023/04/25 12:21:53;;;;;;;6.90;2.90;;;;;;;12.92;51.50;99298.15;134323;1298;23197;-78
2023/04/25 12:24:56;;;;;;;;;;;;;;;12.92;51.54;99298.59;134288;1298;22415;-78
2023/04/25 12:28:14;;;;;;;9.40;3.20;;;;;;;12.87;51.61;99299.52;134292;1297;23090;-78
2023/04/25 12:31:18;;;;;;;;;;;;;;;12.76;51.41;99302.16;134158;1297;23182;-78
2023/04/25 12:34:28;;;;;;;6.70;2.50;;;;;;;12.84;51.81;99309.15;134235;1299;22373;-78
2023/04/25 12:37:34;;;;;;;4.00;2.70;;;;;;;13.01;51.83;99308.27;134055;1298;22181;-78
2023/04/25 12:40:35;;;;;;;3.30;2.60;;;;;;;13.18;51.20;99305.88;134272;1298;22163;-77
2023/04/25 12:43:35;;;;;;;2.70;2.10;;;;;;;13.28;51.50;99303.29;134296;1299;22233;-78
2023/04/25 12:46:37;;;;;;;2.40;2.20;;;;;;;13.37;50.93;99304.41;134308;1298;22323;-78
2023/04/25 12:50:01;;;;;;;4.40;2.20;;;;;;;13.34;50.44;99303.91;134292;1298;22448;-78
2023/04/25 12:53:11;;;;;;;2.50;1.70;;;;;;;13.32;50.60;99300.64;134272;1299;22231;-77
2023/04/25 12:56:12;;;;;;;2.10;1.80;;;;;;;13.36;50.62;99303.49;134312;1298;23060;-78
2023/04/25 12:59:13;;;;;;;2.80;2.20;;;;;;;13.37;50.66;99300.92;134285;1298;22429;-78
2023/04/25 13:02:29;;;;;;;2.00;1.80;;;;;;;13.38;50.81;99302.73;134259;1302;22388;-78
2023/04/25 13:05:37;;;;;;;4.00;1.90;;;;;;;13.37;50.01;99299.32;134321;1298;22342;-78
2023/04/25 13:08:42;;;;;;;2.10;1.70;;;;;;;13.25;49.53;99296.31;134306;1298;22362;-78
2023/04/25 13:11:46;;;;;;;3.20;1.80;;;;;;;13.09;49.08;99294.77;134304;1298;23288;-78
2023/04/25 13:15:09;;;;;;;2.70;1.80;;;;;;;12.91;48.51;99294.90;134306;1297;24212;-78
2023/04/25 13:18:15;;;;;;;3.80;1.90;;;;;;;12.78;49.36;99297.26;134305;1298;23115;-78
2023/04/25 13:21:16;;;;;;;3.50;1.60;;;;;;;12.78;49.43;99293.69;134241;1298;22338;-78
2023/04/25 13:24:17;;;;;;;3.50;1.70;;;;;;;12.83;49.50;99293.86;134318;1298;22464;-79
2023/04/25 13:27:43;;;;;;;2.10;1.50;;;;;;;12.84;49.36;99299.59;134337;1298;22498;-77
2023/04/25 13:30:57;;;;;;;;;;;;;;;;;;;;;
2023/04/25 13:34:12;;;;;;;4.70;2.20;;;;;;;12.77;49.71;99300.44;134283;1298;22457;-78
2023/04/25 13:37:13;;;;;;;6.60;2.50;;;;;;;12.72;49.80;99296.08;134242;1298;22338;-78
2023/04/25 13:40:16;;;;;;;5.50;2.10;;;;;;;12.70;50.10;99300.83;134252;1298;23145;-78
2023/04/25 13:43:36;;;;;;;;;;;;;;;;;;;;;
2023/04/25 13:46:41;;;;;;;4.70;2.70;;;;;;;12.78;50.59;99301.39;134287;1297;22238;-78
2023/04/25 13:49:42;;;;;;;4.70;2.00;;;;;;;12.96;50.85;99300.80;134284;1297;22405;-79
2023/04/25 13:52:46;;;;;;;3.80;1.80;;;;;;;13.04;50.57;99296.23;134251;1298;23138;-77
2023/04/25 13:56:24;;;;;;;8.50;2.60;;;;;;;13.00;50.47;99301.71;134294;1298;23598;-78
2023/04/25 13:59:28;;;;;;;;;;;;;;;12.85;50.36;99303.52;134250;1298;22486;-78
2023/04/25 14:02:28;;;;;;;;;;;;;;;12.69;50.46;99307.04;134097;1304;22452;-78
2023/04/25 14:05:30;;;;;;;4.30;2.40;;;;;;;12.49;50.72;99320.09;134215;1298;22306;-78
2023/04/25 14:08:31;;;;;;;4.80;2.40;;;;;;;12.36;51.08;99323.91;134202;1298;23021;-78
2023/04/25 14:11:56;;;;;;;4.70;3.20;;;;;;;12.26;51.47;99325.45;134297;1298;23008;-78
2023/04/25 14:14:56;;;;;;;5.00;2.80;;;;;;;12.20;51.24;99332.83;134224;1298;22375;-78
2023/04/25 14:18:00;;;;;;;;;;;;;;;12.11;51.15;99332.08;134317;1304;22447;-78
2023/04/25 14:21:07;;;;;;;4.20;3.00;;;;;;;12.04;51.61;99325.30;134226;1304;23054;-78
2023/04/25 14:24:14;;;;;;;4.60;2.20;;;;;;;12.06;51.93;99323.99;134270;1304;22345;-78
2023/04/25 14:27:26;;;;;;;6.50;3.70;;;;;;;12.08;51.87;99326.02;134275;1301;23098;-78
2023/04/25 14:30:28;;;;;;;4.70;2.60;;;;;;;12.12;52.11;99324.98;134127;1299;238408;-78
2023/04/25 14:33:29;;;;;;;4.40;2.90;;;;;;;12.17;51.89;99329.54;134213;1298;22466;-78
2023/04/25 14:36:39;;;;;;;4.10;2.40;;;;;;;12.18;50.96;99328.48;134277;1289;23211;-78
2023/04/25 14:39:40;;;;;;;6.40;2.70;;;;;;;12.16;51.43;99332.65;134146;1299;22420;-77
2023/04/25 14:42:51;;;;;;;4.40;3.00;;;;;;;12.25;52.07;99330.43;134325;1297;22344;-78
2023/04/25 14:45:53;;;;;;;;;;;;;;;12.35;52.26;99335.49;134151;1304;22457;-78
2023/04/25 14:48:57;;;;;;;6.50;3.20;;;;;;;12.38;51.86;99334.27;134272;1302;22224;-78
2023/04/25 14:52:01;;;;;;;6.30;2.80;;;;;;;12.34;51.97;99337.21;134243;1296;22357;-79
2023/04/25 14:55:04;;;;;;;4.30;3.00;;;;;;;12.31;52.06;99338.13;134287;1298;23050;-78
2023/04/25 14:58:11;;;;;;;3.70;2.50;;;;;;;12.25;51.93;99336.50;134067;1291;22241;-78
2023/04/25 15:01:19;;;;;;;6.40;3.90;;;;;;;12.13;52.18;99341.67;134264;1304;22436;-78
2023/04/25 15:04:24;;;;;;;6.10;4.40;;;;;;;12.02;52.35;99347.13;134172;1298;22427;-78
2023/04/25 15:07:39;;;;;;;10.30;6.20;;;;;;;11.90;52.20;99348.55;134234;1298;22509;-78
2023/04/25 15:10:43;;;;;;;9.40;5.20;;;;;;;11.75;52.16;99356.42;134277;1302;23139;-78
2023/04/25 15:13:52;;;;;;;5.50;3.40;;;;;;;11.66;52.49;99357.01;134278;1299;23224;-77
2023/04/25 15:17:38;;;;;;;6.10;3.50;;;;;;;11.58;52.74;99359.56;134312;1298;22365;-78
2023/04/25 15:20:42;;;;;;;12.10;5.40;;;;;;;11.51;53.00;99361.18;134182;1299;22489;-78
2023/04/25 15:23:46;;;;;;;10.70;3.90;;;;;;;11.47;53.27;99361.88;134292;1285;22554;-78
2023/04/25 15:26:46;;;;;;;6.90;3.50;;;;;;;11.43;53.17;99365.40;134222;1297;23087;-78
2023/04/25 15:29:50;;;;;;;;;;;;;;;11.39;53.20;99369.05;134315;1298;22462;-77
2023/04/25 15:32:54;;;;;;;11.60;5.50;;;;;;;11.37;53.84;99371.92;134316;1298;23196;-78
2023/04/25 15:36:05;;;;;;;9.60;4.50;;;;;;;11.35;53.91;99374.65;134270;1298;22348;-77
2023/04/25 15:39:17;;;;;;;8.40;4.10;;;;;;;11.33;54.09;99371.32;134256;1292;22556;-77
2023/04/25 15:42:31;;;;;;;;;;;;;;;;;;;;;
2023/04/25 15:45:36;;;;;;;3.60;2.80;;;;;;;11.22;54.11;99375.77;134266;1298;22497;-78